Time;durP1;ratioP1;P1;durP2;ratioP2;P2;SDS_P1;SDS_P2;PMS_P1;PMS_P2;Temp;Humidity;BMP_temperature;BMP_pressure;BME280_temperature;BME280_humidity;BME280_pressure;Samples;Min_cycle;Max_cycle;Signal;HPM_P1;HPM_P2
2022/02/17 00:01:44;;;;;;;32.00;11.25;;;;;;;;;;4993523;28;20058;-36
2022/02/17 00:04:09;;;;;;;22.80;8.68;;;;;;;;;;4994869;28;20015;-36
2022/02/17 00:06:35;;;;;;;34.05;12.30;;;;;;;;;;4993457;28;20034;-36
2022/02/17 00:09:00;;;;;;;31.55;12.38;;;;;;;;;;4994714;28;20070;-36
2022/02/17 00:11:25;;;;;;;26.20;11.10;;;;;;;;;;4995184;28;20033;-36
2022/02/17 00:13:51;;;;;;;31.92;11.70;;;;;;;;;;4995041;28;20014;-36
2022/02/17 00:16:16;;;;;;;40.20;11.60;;;;;;;;;;4994678;28;20030;-36
2022/02/17 00:18:42;;;;;;;27.77;11.60;;;;;;;;;;4994727;28;20027;-36
2022/02/17 00:21:07;;;;;;;24.48;11.13;;;;;;;;;;4993514;28;20042;-36
2022/02/17 00:23:33;;;;;;;32.55;11.00;;;;;;;;;;4994592;28;20062;-36
2022/02/17 00:25:58;;;;;;;23.58;9.80;;;;;;;;;;4994419;28;20113;-36
2022/02/17 00:28:24;;;;;;;32.92;13.20;;;;;;;;;;4994509;28;20034;-36
2022/02/17 00:30:50;;;;;;;38.75;14.00;;;;;;;;;;4993249;28;20030;-36
2022/02/17 00:33:15;;;;;;;32.33;11.55;;;;;;;;;;4993082;28;20050;-36
2022/02/17 00:35:41;;;;;;;25.88;9.55;;;;;;;;;;4993076;28;20026;-36
2022/02/17 00:38:07;;;;;;;28.02;10.18;;;;;;;;;;4994496;28;20097;-36
2022/02/17 00:40:32;;;;;;;27.45;12.48;;;;;;;;;;4993060;28;20552;-36
2022/02/17 00:42:58;;;;;;;26.38;10.30;;;;;;;;;;4994109;28;20022;-36
2022/02/17 00:45:23;;;;;;;27.75;11.05;;;;;;;;;;4994159;28;20040;-36
2022/02/17 00:47:50;;;;;;;28.73;10.60;;;;;;;;;;4994460;28;20350;-36
2022/02/17 00:50:16;;;;;;;32.15;12.15;;;;;;;;;;4992772;28;20480;-36
2022/02/17 00:52:41;;;;;;;27.50;11.85;;;;;;;;;;4992800;28;20102;-36
2022/02/17 00:55:07;;;;;;;33.83;12.00;;;;;;;;;;4993931;28;20030;-37
2022/02/17 00:57:33;;;;;;;26.30;11.35;;;;;;;;;;4992640;28;20053;-36
2022/02/17 01:00:00;;;;;;;27.20;10.43;;;;;;;;;;4992612;28;20042;-36
2022/02/17 01:02:26;;;;;;;28.73;11.93;;;;;;;;;;4994206;28;20030;-36
2022/02/17 01:04:52;;;;;;;31.10;10.90;;;;;;;;;;4992489;28;20129;-36
2022/02/17 01:07:17;;;;;;;25.08;11.45;;;;;;;;;;4992532;28;20022;-36
2022/02/17 01:09:42;;;;;;;27.45;9.52;;;;;;;;;;4993973;28;20077;-35
2022/02/17 01:12:08;;;;;;;33.80;10.27;;;;;;;;;;4992299;28;20038;-37
2022/02/17 01:14:33;;;;;;;27.67;11.57;;;;;;;;;;4993920;28;20113;-36
2022/02/17 01:16:59;;;;;;;25.45;10.13;;;;;;;;;;4992302;28;20072;-36
2022/02/17 01:19:27;;;;;;;29.02;11.90;;;;;;;;;;4991785;28;20037;-36
2022/02/17 01:21:52;;;;;;;25.90;10.43;;;;;;;;;;4993495;28;20405;-36
2022/02/17 01:24:19;;;;;;;37.65;11.98;;;;;;;;;;4992687;28;20105;-36
2022/02/17 01:26:46;;;;;;;32.85;12.52;;;;;;;;;;4991304;28;20552;-36
2022/02/17 01:29:15;;;;;;;26.55;10.10;;;;;;;;;;4991197;28;20072;-36
2022/02/17 01:31:41;;;;;;;26.42;11.18;;;;;;;;;;4991376;28;20030;-36
2022/02/17 01:34:12;;;;;;;25.00;9.93;;;;;;;;;;4991052;28;20029;-36
2022/02/17 01:36:47;;;;;;;23.92;10.35;;;;;;;;;;4991230;28;20038;-36
2022/02/17 01:39:12;;;;;;;25.85;9.88;;;;;;;;;;4991026;28;20030;-36
2022/02/17 01:41:38;;;;;;;31.70;12.27;;;;;;;;;;4991081;28;20109;-36
2022/02/17 01:44:09;;;;;;;25.05;9.82;;;;;;;;;;4990972;28;20030;-36
2022/02/17 01:46:42;;;;;;;29.80;10.70;;;;;;;;;;4990970;28;20035;-41
2022/02/17 01:49:07;;;;;;;;;;;;;;;;;;4991381;28;20045;-36
2022/02/17 01:51:33;;;;;;;23.65;8.73;;;;;;;;;;4991028;28;19918;-36
2022/02/17 01:53:59;;;;;;;36.33;10.70;;;;;;;;;;4990773;28;20030;-36
2022/02/17 01:56:25;;;;;;;30.63;11.30;;;;;;;;;;4990910;28;20046;-36
2022/02/17 01:58:52;;;;;;;33.10;12.05;;;;;;;;;;4992455;28;20030;-36
2022/02/17 02:01:27;;;;;;;38.55;12.93;;;;;;;;;;4990743;28;20118;-36
2022/02/17 02:03:52;;;;;;;33.03;11.75;;;;;;;;;;4990702;28;20038;-36
2022/02/17 02:06:18;;;;;;;38.05;12.07;;;;;;;;;;4990708;28;20022;-36
2022/02/17 02:08:57;;;;;;;37.47;13.45;;;;;;;;;;4990619;28;20034;-36
2022/02/17 02:11:26;;;;;;;22.75;10.40;;;;;;;;;;4992273;28;20038;-36
2022/02/17 02:13:58;;;;;;;23.55;11.15;;;;;;;;;;4990603;28;20022;-36
2022/02/17 02:16:29;;;;;;;29.30;12.32;;;;;;;;;;4990659;28;20037;-36
2022/02/17 02:18:54;;;;;;;37.65;14.00;;;;;;;;;;4990522;28;20485;-36
2022/02/17 02:21:23;;;;;;;36.65;13.80;;;;;;;;;;4991819;28;20041;-36
2022/02/17 02:23:49;;;;;;;41.28;14.68;;;;;;;;;;4949598;28;1198080;-36
2022/02/17 02:26:15;;;;;;;41.60;13.27;;;;;;;;;;4991177;28;20044;-36
2022/02/17 02:28:41;;;;;;;49.97;13.43;;;;;;;;;;4991238;28;20381;-36
2022/02/17 02:31:07;;;;;;;43.15;13.50;;;;;;;;;;4990289;28;20065;-37
2022/02/17 02:33:32;;;;;;;35.47;12.82;;;;;;;;;;4991245;28;20072;-36
2022/02/17 02:35:58;;;;;;;36.67;12.93;;;;;;;;;;4992317;28;20038;-36
2022/02/17 02:38:26;;;;;;;33.60;12.75;;;;;;;;;;4991098;28;20026;-36
2022/02/17 02:40:53;;;;;;;38.85;13.15;;;;;;;;;;4991159;28;20053;-36
2022/02/17 02:43:41;;;;;;;46.10;12.07;;;;;;;;;;4992196;28;20026;-36
2022/02/17 02:46:10;;;;;;;51.35;14.30;;;;;;;;;;4990999;28;20026;-36
2022/02/17 02:48:37;;;;;;;44.30;13.02;;;;;;;;;;4991098;28;20076;-36
2022/02/17 02:51:05;;;;;;;32.88;12.10;;;;;;;;;;4990913;28;20042;-36
2022/02/17 02:53:30;;;;;;;39.88;13.05;;;;;;;;;;4992577;28;20049;-36
2022/02/17 02:55:56;;;;;;;35.15;11.30;;;;;;;;;;4990868;28;20105;-36
2022/02/17 02:58:21;;;;;;;39.83;13.43;;;;;;;;;;4992256;28;20461;-36
2022/02/17 03:00:50;;;;;;;30.52;14.35;;;;;;;;;;4990899;28;20417;-36
2022/02/17 03:03:16;;;;;;;39.75;12.70;;;;;;;;;;4992196;28;20026;-36
2022/02/17 03:05:42;;;;;;;40.03;11.95;;;;;;;;;;4990887;28;20030;-36
2022/02/17 03:08:07;;;;;;;39.15;12.70;;;;;;;;;;4990808;28;20085;-36
2022/02/17 03:10:33;;;;;;;30.58;11.20;;;;;;;;;;4990983;28;20042;-36
2022/02/17 03:13:00;;;;;;;34.72;13.38;;;;;;;;;;4990705;28;20080;-36
2022/02/17 03:15:29;;;;;;;48.65;13.40;;;;;;;;;;4990828;28;20026;-36
2022/02/17 03:17:54;;;;;;;44.22;13.85;;;;;;;;;;4990452;28;20033;-36
2022/02/17 03:20:20;;;;;;;40.08;11.60;;;;;;;;;;4991651;28;20046;-36
2022/02/17 03:22:46;;;;;;;29.80;9.60;;;;;;;;;;4990165;28;20043;-36
2022/02/17 03:25:13;;;;;;;34.00;11.30;;;;;;;;;;4990151;28;20031;-36
2022/02/17 03:27:41;;;;;;;39.72;13.25;;;;;;;;;;4990254;28;20088;-36
2022/02/17 03:30:32;;;;;;;39.38;12.95;;;;;;;;;;4991496;28;20035;-36
2022/02/17 03:33:07;;;;;;;38.40;12.20;;;;;;;;;;4990118;28;20030;-36
2022/02/17 03:35:33;;;;;;;43.17;14.70;;;;;;;;;;4990148;28;20536;-36
2022/02/17 03:37:58;;;;;;;29.88;10.50;;;;;;;;;;4990134;28;20057;-36
2022/02/17 03:40:27;;;;;;;38.65;10.38;;;;;;;;;;4989998;28;20073;-36
2022/02/17 03:42:52;;;;;;;42.35;11.48;;;;;;;;;;4993592;28;20507;-36
2022/02/17 03:45:18;;;;;;;38.55;11.55;;;;;;;;;;4994786;28;20031;-36
2022/02/17 03:47:43;;;;;;;31.70;12.60;;;;;;;;;;4993547;28;20373;-36
2022/02/17 03:50:14;;;;;;;33.83;10.13;;;;;;;;;;4993435;28;20065;-36
2022/02/17 03:52:41;;;;;;;37.08;11.73;;;;;;;;;;4994707;28;20113;-36
2022/02/17 03:55:24;;;;;;;32.75;10.85;;;;;;;;;;4993335;28;20030;-36
2022/02/17 03:57:49;;;;;;;27.25;11.40;;;;;;;;;;4994713;28;20030;-36
2022/02/17 04:00:18;;;;;;;34.70;12.15;;;;;;;;;;4993218;28;20409;-36
2022/02/17 04:02:44;;;;;;;26.00;10.50;;;;;;;;;;4995039;28;20042;-36
2022/02/17 04:05:10;;;;;;;42.95;12.10;;;;;;;;;;4993185;28;20154;-36
2022/02/17 04:07:37;;;;;;;31.75;11.07;;;;;;;;;;4993201;28;20504;-36
2022/02/17 04:10:16;;;;;;;35.17;10.27;;;;;;;;;;4993369;28;20037;-36
2022/02/17 04:12:42;;;;;;;28.27;10.23;;;;;;;;;;4994629;28;20034;-36
2022/02/17 04:15:10;;;;;;;39.65;11.85;;;;;;;;;;4994160;28;20036;-36
2022/02/17 04:17:36;;;;;;;32.55;10.90;;;;;;;;;;4993230;28;20045;-36
2022/02/17 04:20:27;;;;;;;22.10;9.82;;;;;;;;;;4994190;28;20022;-36
2022/02/17 04:23:11;;;;;;;33.47;11.48;;;;;;;;;;4994101;28;20057;-37
2022/02/17 04:36:38;;;;;;;35.10;10.73;;;;;;;;;;4993900;28;20033;-36
2022/02/17 04:39:11;;;;;;;29.38;11.55;;;;;;;;;;4992572;28;20034;-36
2022/02/17 04:44:27;;;;;;;38.42;11.80;;;;;;;;;;4992427;28;20030;-36
2022/02/17 04:46:58;;;;;;;38.28;11.77;;;;;;;;;;4992485;28;20093;-36
2022/02/17 04:49:24;;;;;;;39.15;12.55;;;;;;;;;;4992407;28;20030;-37
2022/02/17 04:51:50;;;;;;;42.35;14.75;;;;;;;;;;4992194;28;20022;-36
2022/02/17 04:54:18;;;;;;;40.38;14.48;;;;;;;;;;4991452;28;20042;-36
2022/02/17 04:56:45;;;;;;;38.13;11.95;;;;;;;;;;4992246;28;20030;-36
2022/02/17 04:59:11;;;;;;;39.78;13.23;;;;;;;;;;4992106;28;20026;-36
2022/02/17 05:01:44;;;;;;;34.40;12.70;;;;;;;;;;4992027;28;20034;-36
2022/02/17 05:04:34;;;;;;;34.25;11.70;;;;;;;;;;4992097;28;20053;-35
2022/02/17 05:07:06;;;;;;;48.25;14.20;;;;;;;;;;4991893;28;20037;-36
2022/02/17 05:09:32;;;;;;;46.38;14.85;;;;;;;;;;4992072;28;20185;-36
2022/02/17 05:11:57;;;;;;;42.92;15.45;;;;;;;;;;4993256;28;20105;-36
2022/02/17 05:14:24;;;;;;;43.30;13.85;;;;;;;;;;4991843;28;20033;-37
2022/02/17 05:16:49;;;;;;;40.17;13.48;;;;;;;;;;4991909;28;20023;-36
2022/02/17 05:19:15;;;;;;;38.45;13.57;;;;;;;;;;4992257;28;20746;-36
2022/02/17 05:21:53;;;;;;;38.53;14.27;;;;;;;;;;4992225;28;20569;-36
2022/02/17 05:24:45;;;;;;;37.78;14.20;;;;;;;;;;4992285;28;20560;-36
2022/02/17 05:27:19;;;;;;;37.22;12.23;;;;;;;;;;4993656;28;20043;-37
2022/02/17 05:30:05;;;;;;;44.50;14.18;;;;;;;;;;4993202;28;20042;-36
2022/02/17 05:32:57;;;;;;;37.10;13.40;;;;;;;;;;4992194;28;20030;-36
2022/02/17 05:35:28;;;;;;;35.80;13.00;;;;;;;;;;4991917;28;20037;-36
2022/02/17 05:38:07;;;;;;;36.80;12.02;;;;;;;;;;4991888;28;20142;-37
2022/02/17 05:40:54;;;;;;;34.05;10.93;;;;;;;;;;4991960;28;20096;-36
2022/02/17 05:43:19;;;;;;;40.10;14.30;;;;;;;;;;4993312;28;20034;-36
2022/02/17 05:45:44;;;;;;;47.92;14.52;;;;;;;;;;4993066;28;20381;-36
2022/02/17 05:48:10;;;;;;;41.95;14.13;;;;;;;;;;4993065;28;20035;-36
2022/02/17 05:50:37;;;;;;;33.08;13.20;;;;;;;;;;4993044;28;20101;-36
2022/02/17 05:53:03;;;;;;;28.35;12.15;;;;;;;;;;4993035;28;20117;-37
2022/02/17 05:55:28;;;;;;;43.08;12.55;;;;;;;;;;4992855;28;20369;-36
2022/02/17 05:57:54;;;;;;;34.03;13.23;;;;;;;;;;4993216;28;20061;-35
2022/02/17 06:00:22;;;;;;;30.90;12.68;;;;;;;;;;4991522;28;20370;-35
2022/02/17 06:02:47;;;;;;;38.42;12.50;;;;;;;;;;4992848;28;20037;-35
2022/02/17 06:05:16;;;;;;;35.08;11.43;;;;;;;;;;4992510;28;20022;-36
2022/02/17 06:07:42;;;;;;;39.47;14.95;;;;;;;;;;4992788;28;20042;-36
2022/02/17 06:10:08;;;;;;;46.30;15.18;;;;;;;;;;4992648;28;20445;-36
2022/02/17 06:12:39;;;;;;;43.08;14.40;;;;;;;;;;4993024;28;20030;-36
2022/02/17 06:15:04;;;;;;;33.95;11.52;;;;;;;;;;4992488;28;20038;-35
2022/02/17 06:17:30;;;;;;;46.28;12.70;;;;;;;;;;4992954;28;20085;-36
2022/02/17 06:19:55;;;;;;;36.45;13.88;;;;;;;;;;4992850;28;20040;-36
2022/02/17 06:22:21;;;;;;;34.58;13.27;;;;;;;;;;4992322;28;20038;-36
2022/02/17 06:24:47;;;;;;;34.72;13.50;;;;;;;;;;4992753;28;20108;-36
2022/02/17 06:27:12;;;;;;;31.75;11.93;;;;;;;;;;4992524;28;20039;-36
2022/02/17 06:29:38;;;;;;;36.30;12.55;;;;;;;;;;4992625;28;20026;-35
2022/02/17 06:32:04;;;;;;;28.48;12.60;;;;;;;;;;4992358;28;20026;-35
2022/02/17 06:34:29;;;;;;;26.77;11.30;;;;;;;;;;4992466;28;20030;-35
2022/02/17 06:36:55;;;;;;;33.10;13.30;;;;;;;;;;4992761;28;20057;-36
2022/02/17 06:39:20;;;;;;;41.53;14.38;;;;;;;;;;4992303;28;20477;-36
2022/02/17 06:41:46;;;;;;;34.35;13.35;;;;;;;;;;4992678;28;20031;-36
2022/02/17 06:44:11;;;;;;;46.08;15.27;;;;;;;;;;4992314;28;20061;-36
2022/02/17 06:46:37;;;;;;;46.38;14.10;;;;;;;;;;4992388;28;20025;-36
2022/02/17 06:49:03;;;;;;;40.38;13.18;;;;;;;;;;4992311;28;20038;-35
2022/02/17 06:51:28;;;;;;;31.08;12.75;;;;;;;;;;4992587;28;20080;-36
2022/02/17 06:53:54;;;;;;;38.67;14.15;;;;;;;;;;4992394;28;20385;-35
2022/02/17 06:56:20;;;;;;;35.80;13.15;;;;;;;;;;4992526;28;20034;-36
2022/02/17 06:58:46;;;;;;;38.25;12.80;;;;;;;;;;4992420;28;20488;-36
2022/02/17 07:01:12;;;;;;;47.20;16.35;;;;;;;;;;4992383;28;20074;-36
2022/02/17 07:03:38;;;;;;;39.47;14.63;;;;;;;;;;4992196;28;20385;-36
2022/02/17 07:06:03;;;;;;;34.25;13.15;;;;;;;;;;4992199;28;20038;-35
2022/02/17 07:08:29;;;;;;;43.45;14.93;;;;;;;;;;4990944;28;20032;-36
2022/02/17 07:10:54;;;;;;;39.47;12.88;;;;;;;;;;4992465;28;20072;-36
2022/02/17 07:13:20;;;;;;;38.40;13.82;;;;;;;;;;4992129;28;20860;-36
2022/02/17 07:15:47;;;;;;;42.50;13.20;;;;;;;;;;4992405;28;20026;-36
2022/02/17 07:18:13;;;;;;;39.95;13.18;;;;;;;;;;4995913;28;20030;-36
2022/02/17 07:20:39;;;;;;;45.45;13.90;;;;;;;;;;4995729;28;20031;-36
2022/02/17 07:23:05;;;;;;;46.05;14.55;;;;;;;;;;4995524;28;20450;-36
2022/02/17 07:25:32;;;;;;;40.55;13.60;;;;;;;;;;4996040;28;20034;-36
2022/02/17 07:27:58;;;;;;;34.90;11.52;;;;;;;;;;4995637;28;20038;-35
2022/02/17 07:30:23;;;;;;;36.20;12.52;;;;;;;;;;4995491;28;20031;-36
2022/02/17 07:32:49;;;;;;;34.83;12.45;;;;;;;;;;4995649;28;20033;-36
2022/02/17 07:35:14;;;;;;;49.67;17.10;;;;;;;;;;4995398;28;20584;-36
2022/02/17 07:37:40;;;;;;;38.97;13.45;;;;;;;;;;4995786;28;20030;-36
2022/02/17 07:40:07;;;;;;;41.28;14.95;;;;;;;;;;4995506;28;20023;-36
2022/02/17 07:42:32;;;;;;;43.63;13.30;;;;;;;;;;4995608;28;20121;-36
2022/02/17 07:45:00;;;;;;;35.80;13.13;;;;;;;;;;4995625;28;20613;-36
2022/02/17 07:47:26;;;;;;;36.60;12.07;;;;;;;;;;4995201;28;20070;-36
2022/02/17 07:49:54;;;;;;;42.75;15.30;;;;;;;;;;4995334;28;20019;-36
2022/02/17 07:52:20;;;;;;;36.97;12.93;;;;;;;;;;4995286;28;20105;-36
2022/02/17 07:54:46;;;;;;;43.05;13.18;;;;;;;;;;4995155;28;20069;-36
2022/02/17 07:57:11;;;;;;;41.03;14.70;;;;;;;;;;4995351;28;20034;-36
2022/02/17 07:59:37;;;;;;;41.83;15.02;;;;;;;;;;4993848;28;20023;-39
2022/02/17 08:02:02;;;;;;;39.20;13.90;;;;;;;;;;4994956;28;20057;-36
2022/02/17 08:04:28;;;;;;;41.92;12.70;;;;;;;;;;4995007;28;20093;-36
2022/02/17 08:06:54;;;;;;;30.42;12.27;;;;;;;;;;4995200;28;20092;-35
2022/02/17 08:09:21;;;;;;;32.08;12.60;;;;;;;;;;4994914;28;20018;-36
2022/02/17 08:11:46;;;;;;;44.80;16.17;;;;;;;;;;4994785;28;20113;-36
2022/02/17 08:14:12;;;;;;;33.97;13.32;;;;;;;;;;4995029;28;20046;-36
2022/02/17 08:16:37;;;;;;;37.55;13.00;;;;;;;;;;4995195;28;20392;-36
2022/02/17 08:19:04;;;;;;;33.63;12.20;;;;;;;;;;4994562;28;20026;-36
2022/02/17 08:21:30;;;;;;;38.03;13.80;;;;;;;;;;4994765;28;20045;-36
2022/02/17 08:23:55;;;;;;;35.22;11.63;;;;;;;;;;4994422;28;20054;-36
2022/02/17 08:26:21;;;;;;;37.90;12.80;;;;;;;;;;4994801;28;20030;-36
2022/02/17 08:28:48;;;;;;;45.85;13.18;;;;;;;;;;4994561;28;20378;-35
2022/02/17 08:31:13;;;;;;;30.75;12.93;;;;;;;;;;4994435;28;20076;-36
2022/02/17 08:33:40;;;;;;;40.92;13.70;;;;;;;;;;4994420;28;20062;-36
2022/02/17 08:36:06;;;;;;;31.08;11.57;;;;;;;;;;4994383;28;20027;-36
2022/02/17 08:38:32;;;;;;;32.78;12.48;;;;;;;;;;4993187;28;20018;-36
2022/02/17 08:40:59;;;;;;;33.00;12.48;;;;;;;;;;4994266;28;20041;-36
2022/02/17 08:43:24;;;;;;;36.40;14.88;;;;;;;;;;4994220;28;20014;-36
2022/02/17 08:45:50;;;;;;;32.95;11.77;;;;;;;;;;4994248;28;20049;-36
2022/02/17 08:48:16;;;;;;;33.33;12.18;;;;;;;;;;4994074;28;20030;-36
2022/02/17 08:50:46;;;;;;;30.58;12.93;;;;;;;;;;4993262;28;20037;-36
2022/02/17 08:53:12;;;;;;;28.85;11.23;;;;;;;;;;4993997;28;20085;-36
2022/02/17 08:55:37;;;;;;;31.25;11.85;;;;;;;;;;4994368;28;20034;-36
2022/02/17 08:58:03;;;;;;;30.75;12.75;;;;;;;;;;4994051;28;20463;-36
2022/02/17 09:00:28;;;;;;;33.55;12.85;;;;;;;;;;4993912;28;20029;-36
2022/02/17 09:02:54;;;;;;;34.60;11.98;;;;;;;;;;4993944;28;20046;-35
2022/02/17 09:05:20;;;;;;;36.95;13.13;;;;;;;;;;4993924;28;20026;-36
2022/02/17 09:07:45;;;;;;;28.52;11.82;;;;;;;;;;4993864;28;20065;-36
2022/02/17 09:10:11;;;;;;;36.88;13.32;;;;;;;;;;4994056;28;20393;-36
2022/02/17 09:12:37;;;;;;;29.85;12.95;;;;;;;;;;4994112;28;20031;-36
2022/02/17 09:15:03;;;;;;;41.90;13.13;;;;;;;;;;4993638;28;20026;-36
2022/02/17 09:17:29;;;;;;;36.58;12.43;;;;;;;;;;4993752;28;20030;-36
2022/02/17 09:19:55;;;;;;;32.40;12.05;;;;;;;;;;4993834;28;20022;-36
2022/02/17 09:22:20;;;;;;;25.48;9.65;;;;;;;;;;4993549;28;20042;-36
2022/02/17 09:24:46;;;;;;;32.70;11.98;;;;;;;;;;4993605;28;20076;-36
2022/02/17 09:27:11;;;;;;;33.38;12.93;;;;;;;;;;4993721;28;20065;-36
2022/02/17 09:29:37;;;;;;;32.85;12.45;;;;;;;;;;4993441;28;20058;-37
2022/02/17 09:32:05;;;;;;;29.92;12.70;;;;;;;;;;4993303;28;20385;-36
2022/02/17 09:34:31;;;;;;;29.92;12.55;;;;;;;;;;4993341;28;20517;-36
2022/02/17 09:36:56;;;;;;;31.67;12.25;;;;;;;;;;4993333;28;20032;-36
2022/02/17 09:39:21;;;;;;;29.38;11.48;;;;;;;;;;4992967;28;20067;-36
2022/02/17 09:41:48;;;;;;;30.45;13.77;;;;;;;;;;4993463;28;20484;-36
2022/02/17 09:44:13;;;;;;;32.13;13.32;;;;;;;;;;4992996;28;20161;-36
2022/02/17 09:46:45;;;;;;;35.08;12.13;;;;;;;;;;4993511;28;20030;-36
2022/02/17 09:49:14;;;;;;;50.70;14.52;;;;;;;;;;4993113;28;20042;-36
2022/02/17 09:51:40;;;;;;;30.27;12.68;;;;;;;;;;4993058;28;20110;-35
2022/02/17 09:54:05;;;;;;;31.90;11.48;;;;;;;;;;4992946;28;20149;-36
2022/02/17 09:56:31;;;;;;;29.33;12.57;;;;;;;;;;4992996;28;20109;-36
2022/02/17 09:58:57;;;;;;;30.13;10.73;;;;;;;;;;4992961;28;20030;-39
2022/02/17 10:01:26;;;;;;;27.52;11.32;;;;;;;;;;4992883;28;20634;-36
2022/02/17 10:04:10;;;;;;;36.42;12.32;;;;;;;;;;4992818;28;20485;-36
2022/02/17 10:06:40;;;;;;;31.80;14.60;;;;;;;;;;4992861;28;20033;-36
2022/02/17 10:09:06;;;;;;;31.50;12.60;;;;;;;;;;4992731;28;20101;-36
2022/02/17 10:11:32;;;;;;;28.55;12.77;;;;;;;;;;4992795;28;20027;-36
2022/02/17 10:13:58;;;;;;;28.40;10.65;;;;;;;;;;4992935;28;20030;-36
2022/02/17 10:16:24;;;;;;;28.35;11.18;;;;;;;;;;4992724;28;20454;-36
2022/02/17 10:18:49;;;;;;;30.63;13.85;;;;;;;;;;4992630;28;20027;-36
2022/02/17 10:21:15;;;;;;;32.00;11.48;;;;;;;;;;4992517;28;20038;-36
2022/02/17 10:23:43;;;;;;;27.02;12.10;;;;;;;;;;4991197;28;20046;-36
2022/02/17 10:26:10;;;;;;;31.75;12.30;;;;;;;;;;4992680;28;20113;-36
2022/02/17 10:28:59;;;;;;;38.70;15.10;;;;;;;;;;4992901;28;20026;-36
2022/02/17 10:31:29;;;;;;;34.67;14.13;;;;;;;;;;4992289;28;20027;-36
2022/02/17 10:33:56;;;;;;;33.83;12.27;;;;;;;;;;4992455;28;20030;-36
2022/02/17 10:36:42;;;;;;;30.75;12.07;;;;;;;;;;4992431;28;20465;-36
2022/02/17 10:39:07;;;;;;;23.65;11.65;;;;;;;;;;4992327;28;20027;-36
2022/02/17 10:41:51;;;;;;;29.83;11.40;;;;;;;;;;4992575;28;20413;-36
2022/02/17 10:44:18;;;;;;;31.70;12.02;;;;;;;;;;4992284;28;20531;-36
2022/02/17 10:46:43;;;;;;;29.77;11.55;;;;;;;;;;4992534;28;20117;-36
2022/02/17 10:49:10;;;;;;;25.88;11.80;;;;;;;;;;4992598;28;20110;-36
2022/02/17 10:51:35;;;;;;;33.55;12.57;;;;;;;;;;4994147;28;20053;-36
2022/02/17 10:54:01;;;;;;;29.13;11.65;;;;;;;;;;4996370;28;20523;-36
2022/02/17 10:56:30;;;;;;;32.50;11.93;;;;;;;;;;4996164;28;20034;-36
2022/02/17 10:58:59;;;;;;;33.17;13.75;;;;;;;;;;4996181;28;20030;-36
2022/02/17 11:01:25;;;;;;;34.53;12.48;;;;;;;;;;4996285;28;20153;-36
2022/02/17 11:03:51;;;;;;;33.53;12.57;;;;;;;;;;4996311;28;20153;-35
2022/02/17 11:06:18;;;;;;;28.73;11.52;;;;;;;;;;4996099;28;20511;-36
2022/02/17 11:08:44;;;;;;;27.25;12.02;;;;;;;;;;4996280;28;20041;-36
2022/02/17 11:11:13;;;;;;;27.67;11.75;;;;;;;;;;4995974;28;20029;-36
2022/02/17 11:13:42;;;;;;;22.70;10.93;;;;;;;;;;4996280;28;20053;-36
2022/02/17 11:16:09;;;;;;;30.35;12.27;;;;;;;;;;4995812;28;20504;-37
2022/02/17 11:18:35;;;;;;;30.70;11.07;;;;;;;;;;4995927;28;20030;-37
2022/02/17 11:21:01;;;;;;;27.40;12.10;;;;;;;;;;4995822;28;20037;-36
2022/02/17 11:23:28;;;;;;;38.08;13.15;;;;;;;;;;4995613;28;20468;-36
2022/02/17 11:25:54;;;;;;;33.95;12.57;;;;;;;;;;4995847;28;20107;-36
2022/02/17 11:28:29;;;;;;;33.17;11.77;;;;;;;;;;4995936;28;20116;-36
2022/02/17 11:30:59;;;;;;;23.15;12.65;;;;;;;;;;4994493;28;20038;-36
2022/02/17 11:33:26;;;;;;;34.10;13.75;;;;;;;;;;4995443;28;20496;-36
2022/02/17 11:35:53;;;;;;;25.50;11.88;;;;;;;;;;4995697;28;20038;-36
2022/02/17 12:51:46;;;;;;;33.78;16.27;;;;;;;;;;5088828;27;20906;-38
2022/02/17 12:54:12;;;;;;;37.20;14.48;;;;;;;;;;5088755;28;20032;-39
2022/02/17 12:56:40;;;;;;;32.13;12.63;;;;;;;;;;5088935;28;20028;-38
2022/02/17 12:59:07;;;;;;;26.77;13.23;;;;;;;;;;5088824;28;20035;-38
2022/02/17 13:01:33;;;;;;;25.77;12.18;;;;;;;;;;5088577;28;20035;-38
2022/02/17 13:03:58;;;;;;;29.13;12.50;;;;;;;;;;5088771;28;20028;-39
2022/02/17 13:06:25;;;;;;;34.40;14.25;;;;;;;;;;5088446;28;20031;-39
2022/02/17 13:08:52;;;;;;;31.95;11.70;;;;;;;;;;5088431;28;20123;-39
2022/02/17 13:11:19;;;;;;;34.25;12.80;;;;;;;;;;5088282;28;20560;-39
2022/02/17 13:13:45;;;;;;;31.70;13.32;;;;;;;;;;5088633;28;20028;-39
2022/02/17 13:16:13;;;;;;;31.50;12.65;;;;;;;;;;5088677;28;20050;-39
2022/02/17 13:18:41;;;;;;;36.13;11.90;;;;;;;;;;5070564;28;20028;-43
2022/02/17 13:21:10;;;;;;;33.35;14.07;;;;;;;;;;5088050;28;20383;-39
2022/02/17 13:23:36;;;;;;;25.05;13.65;;;;;;;;;;5088784;28;20062;-39
2022/02/17 13:26:02;;;;;;;28.88;9.32;;;;;;;;;;5088870;28;20486;-38
2022/02/17 13:28:27;;;;;;;29.38;11.80;;;;;;;;;;5088662;28;20036;-39
2022/02/17 13:30:53;;;;;;;33.47;13.60;;;;;;;;;;5088489;28;20051;-39
2022/02/17 13:33:20;;;;;;;30.88;13.13;;;;;;;;;;5088476;28;20107;-38
2022/02/17 13:35:49;;;;;;;30.40;12.90;;;;;;;;;;5088433;28;20021;-39
2022/02/17 13:38:14;;;;;;;33.13;13.93;;;;;;;;;;5088401;28;20040;-39
2022/02/17 13:40:44;;;;;;;30.42;12.93;;;;;;;;;;5088213;28;20036;-39
2022/02/17 13:43:09;;;;;;;27.67;11.88;;;;;;;;;;5088429;28;20129;-39
2022/02/17 13:45:36;;;;;;;32.90;13.30;;;;;;;;;;5088594;28;20055;-39
2022/02/17 13:48:02;;;;;;;31.30;13.45;;;;;;;;;;5088262;28;20377;-39
2022/02/17 13:50:29;;;;;;;32.70;13.45;;;;;;;;;;5087723;28;20127;-39
2022/02/17 13:53:01;;;;;;;29.35;11.60;;;;;;;;;;5074057;28;20035;-39
2022/02/17 13:55:26;;;;;;;25.55;12.45;;;;;;;;;;5073334;28;20042;-38
2022/02/17 13:57:52;;;;;;;30.95;12.43;;;;;;;;;;5074888;28;20111;-39
2022/02/17 14:00:25;;;;;;;33.38;13.02;;;;;;;;;;5074507;28;20039;-39
2022/02/17 14:02:51;;;;;;;28.38;12.23;;;;;;;;;;5073100;28;20032;-39
2022/02/17 14:05:27;;;;;;;28.60;11.75;;;;;;;;;;5074713;28;20413;-39
2022/02/17 14:07:53;;;;;;;32.30;13.40;;;;;;;;;;5074463;28;20024;-39
2022/02/17 14:10:19;;;;;;;32.15;13.25;;;;;;;;;;5074722;28;20033;-42
2022/02/17 14:12:44;;;;;;;30.23;12.88;;;;;;;;;;5074483;28;20431;-39
2022/02/17 14:15:10;;;;;;;26.33;12.20;;;;;;;;;;5074240;28;20041;-39
2022/02/17 14:17:35;;;;;;;29.65;12.32;;;;;;;;;;5074327;28;20033;-39
2022/02/17 14:20:01;;;;;;;28.75;12.50;;;;;;;;;;5074075;28;20493;-39
2022/02/17 14:22:26;;;;;;;27.52;12.00;;;;;;;;;;5074146;28;20036;-38
2022/02/17 14:24:52;;;;;;;26.77;11.35;;;;;;;;;;5072841;28;20434;-39
2022/02/17 14:27:19;;;;;;;35.08;13.27;;;;;;;;;;5074406;28;20039;-39
2022/02/17 14:29:45;;;;;;;27.70;13.35;;;;;;;;;;5074374;28;20021;-39
2022/02/17 14:32:10;;;;;;;34.15;14.73;;;;;;;;;;5074299;28;20524;-40
2022/02/17 14:35:09;;;;;;;25.90;11.52;;;;;;;;;;5073902;28;20021;-39
2022/02/17 14:37:22;;;;;;;40.95;14.00;;;;;;;;;;5073898;28;20021;-39
2022/02/17 14:39:48;;;;;;;28.48;12.27;;;;;;;;;;5073792;28;20035;-39
2022/02/17 14:42:13;;;;;;;27.98;12.93;;;;;;;;;;5073739;28;20028;-39
2022/02/17 14:44:38;;;;;;;27.38;11.73;;;;;;;;;;5073769;28;20024;-39
2022/02/17 14:47:04;;;;;;;29.58;12.13;;;;;;;;;;5073952;28;20454;-39
2022/02/17 14:49:29;;;;;;;25.20;10.18;;;;;;;;;;5073584;28;20019;-39
2022/02/17 14:51:57;;;;;;;24.73;9.85;;;;;;;;;;5073798;28;20496;-39
2022/02/17 14:54:24;;;;;;;36.88;13.38;;;;;;;;;;5073546;28;20043;-39
2022/02/17 14:56:50;;;;;;;23.38;11.80;;;;;;;;;;5073628;28;20028;-39
2022/02/17 14:59:16;;;;;;;30.15;12.45;;;;;;;;;;5073708;28;20406;-39
2022/02/17 15:01:42;;;;;;;30.30;11.98;;;;;;;;;;5073301;28;20048;-39
2022/02/17 15:04:07;;;;;;;23.95;12.77;;;;;;;;;;5072279;28;20027;-39
2022/02/17 15:06:33;;;;;;;35.05;14.18;;;;;;;;;;5073282;28;20465;-39
2022/02/17 15:08:58;;;;;;;28.88;12.52;;;;;;;;;;5073106;28;20046;-39
2022/02/17 15:11:24;;;;;;;31.45;12.95;;;;;;;;;;5073032;28;20036;-39
2022/02/17 15:13:50;;;;;;;32.35;13.32;;;;;;;;;;5073265;28;20028;-39
2022/02/17 15:16:16;;;;;;;25.63;12.30;;;;;;;;;;5073072;28;20036;-39
2022/02/17 15:18:42;;;;;;;26.80;12.38;;;;;;;;;;5073011;28;20025;-39
2022/02/17 15:21:08;;;;;;;28.45;12.55;;;;;;;;;;5072799;28;20063;-39
2022/02/17 15:23:34;;;;;;;27.05;11.02;;;;;;;;;;5073255;28;20378;-39
2022/02/17 15:26:00;;;;;;;33.70;13.05;;;;;;;;;;5073100;28;20032;-39
2022/02/17 15:28:25;;;;;;;27.80;12.95;;;;;;;;;;5072887;28;20425;-39
2022/02/17 15:30:51;;;;;;;25.95;13.20;;;;;;;;;;5072847;28;20112;-39
2022/02/17 15:33:16;;;;;;;24.48;10.68;;;;;;;;;;5072686;28;20016;-39
2022/02/17 15:35:42;;;;;;;33.67;12.38;;;;;;;;;;5072593;28;20025;-39
2022/02/17 15:38:08;;;;;;;19.27;10.27;;;;;;;;;;5072788;28;20051;-39
2022/02/17 15:40:33;;;;;;;26.75;12.57;;;;;;;;;;5072490;28;20151;-39
2022/02/17 15:42:59;;;;;;;22.20;10.65;;;;;;;;;;5071440;28;20103;-39
2022/02/17 15:45:25;;;;;;;21.45;10.95;;;;;;;;;;5072394;28;20033;-39
2022/02/17 15:47:53;;;;;;;25.70;10.40;;;;;;;;;;5071128;28;20046;-39